sensor_id;sensor_type;location;lat;lon;timestamp;P1;durP1;ratioP1;P2;durP2;ratioP2
36137;SDS011;67787;50.074;21.904;2023-09-19T04:03:03;16.80;;;7.50;;
36137;SDS011;67787;50.074;21.904;2023-09-19T04:05:35;14.90;;;7.60;;
36137;SDS011;67787;50.074;21.904;2023-09-19T04:08:03;16.50;;;8.20;;
36137;SDS011;67787;50.074;21.904;2023-09-19T04:10:31;16.10;;;8.30;;
36137;SDS011;67787;50.074;21.904;2023-09-19T04:12:59;16.70;;;8.90;;
36137;SDS011;67787;50.074;21.904;2023-09-19T04:15:27;16.50;;;8.50;;
36137;SDS011;67787;50.074;21.904;2023-09-19T04:17:55;18.40;;;9.10;;
36137;SDS011;67787;50.074;21.904;2023-09-19T04:20:23;17.50;;;8.70;;
36137;SDS011;67787;50.074;21.904;2023-09-19T04:22:51;16.00;;;8.20;;
36137;SDS011;67787;50.074;21.904;2023-09-19T04:25:20;18.50;;;9.20;;
36137;SDS011;67787;50.074;21.904;2023-09-19T04:27:48;14.50;;;8.00;;
36137;SDS011;67787;50.074;21.904;2023-09-19T04:30:19;16.60;;;8.50;;
36137;SDS011;67787;50.074;21.904;2023-09-19T04:32:49;19.10;;;8.40;;
36137;SDS011;67787;50.074;21.904;2023-09-19T04:35:19;18.00;;;8.70;;
36137;SDS011;67787;50.074;21.904;2023-09-19T04:37:47;16.50;;;8.70;;
36137;SDS011;67787;50.074;21.904;2023-09-19T04:40:15;15.50;;;8.20;;
36137;SDS011;67787;50.074;21.904;2023-09-19T04:42:52;16.50;;;8.40;;
36137;SDS011;67787;50.074;21.904;2023-09-19T04:45:24;16.60;;;8.30;;
36137;SDS011;67787;50.074;21.904;2023-09-19T04:47:52;19.80;;;9.50;;
36137;SDS011;67787;50.074;21.904;2023-09-19T04:50:21;18.10;;;8.90;;
36137;SDS011;67787;50.074;21.904;2023-09-19T04:52:55;15.50;;;7.90;;
36137;SDS011;67787;50.074;21.904;2023-09-19T04:55:24;16.70;;;7.90;;
36137;SDS011;67787;50.074;21.904;2023-09-19T04:57:53;15.70;;;8.40;;
36137;SDS011;67787;50.074;21.904;2023-09-19T05:00:21;18.40;;;8.20;;
36137;SDS011;67787;50.074;21.904;2023-09-19T05:02:57;16.70;;;8.30;;
36137;SDS011;67787;50.074;21.904;2023-09-19T05:05:25;19.60;;;9.40;;
36137;SDS011;67787;50.074;21.904;2023-09-19T05:07:54;17.80;;;8.40;;
36137;SDS011;67787;50.074;21.904;2023-09-19T05:10:23;15.00;;;7.60;;
36137;SDS011;67787;50.074;21.904;2023-09-19T05:12:54;18.30;;;9.00;;
36137;SDS011;67787;50.074;21.904;2023-09-19T05:15:22;17.90;;;8.50;;
36137;SDS011;67787;50.074;21.904;2023-09-19T05:17:50;16.10;;;7.50;;
36137;SDS011;67787;50.074;21.904;2023-09-19T05:20:25;16.10;;;8.00;;
36137;SDS011;67787;50.074;21.904;2023-09-19T05:23:01;16.00;;;8.10;;
36137;SDS011;67787;50.074;21.904;2023-09-19T05:25:36;16.70;;;8.20;;
36137;SDS011;67787;50.074;21.904;2023-09-19T05:28:05;13.80;;;7.90;;
36137;SDS011;67787;50.074;21.904;2023-09-19T05:30:35;17.00;;;7.80;;
36137;SDS011;67787;50.074;21.904;2023-09-19T05:33:06;16.50;;;7.90;;
36137;SDS011;67787;50.074;21.904;2023-09-19T05:35:35;15.20;;;7.60;;
36137;SDS011;67787;50.074;21.904;2023-09-19T05:38:09;16.40;;;7.60;;
36137;SDS011;67787;50.074;21.904;2023-09-19T05:40:39;15.00;;;7.70;;
36137;SDS011;67787;50.074;21.904;2023-09-19T05:43:12;15.60;;;8.00;;
36137;SDS011;67787;50.074;21.904;2023-09-19T05:45:42;15.50;;;7.40;;
36137;SDS011;67787;50.074;21.904;2023-09-19T05:48:10;13.90;;;6.50;;
36137;SDS011;67787;50.074;21.904;2023-09-19T05:50:41;15.20;;;7.90;;
36137;SDS011;67787;50.074;21.904;2023-09-19T05:53:12;16.40;;;8.00;;
36137;SDS011;67787;50.074;21.904;2023-09-19T05:55:42;13.90;;;7.40;;
36137;SDS011;67787;50.074;21.904;2023-09-19T05:58:11;15.60;;;7.80;;
36137;SDS011;67787;50.074;21.904;2023-09-19T06:00:42;14.20;;;7.10;;
36137;SDS011;67787;50.074;21.904;2023-09-19T06:03:12;14.70;;;7.50;;
36137;SDS011;67787;50.074;21.904;2023-09-19T06:05:42;14.50;;;7.60;;
36137;SDS011;67787;50.074;21.904;2023-09-19T06:08:10;18.60;;;7.90;;
36137;SDS011;67787;50.074;21.904;2023-09-19T06:10:38;17.90;;;8.00;;
36137;SDS011;67787;50.074;21.904;2023-09-19T06:13:06;13.90;;;7.70;;
36137;SDS011;67787;50.074;21.904;2023-09-19T06:15:38;15.30;;;7.60;;
36137;SDS011;67787;50.074;21.904;2023-09-19T06:18:10;14.60;;;6.80;;
36137;SDS011;67787;50.074;21.904;2023-09-19T06:20:43;15.60;;;7.70;;
36137;SDS011;67787;50.074;21.904;2023-09-19T06:23:13;17.80;;;8.60;;
36137;SDS011;67787;50.074;21.904;2023-09-19T06:25:41;16.80;;;8.10;;
36137;SDS011;67787;50.074;21.904;2023-09-19T06:28:13;13.50;;;7.40;;
36137;SDS011;67787;50.074;21.904;2023-09-19T06:30:42;14.70;;;7.60;;
36137;SDS011;67787;50.074;21.904;2023-09-19T06:33:10;14.10;;;7.50;;
36137;SDS011;67787;50.074;21.904;2023-09-19T06:35:43;15.90;;;8.30;;
36137;SDS011;67787;50.074;21.904;2023-09-19T06:38:12;15.30;;;7.90;;
36137;SDS011;67787;50.074;21.904;2023-09-19T06:40:40;16.60;;;8.70;;
36137;SDS011;67787;50.074;21.904;2023-09-19T06:43:12;18.50;;;8.90;;
36137;SDS011;67787;50.074;21.904;2023-09-19T06:45:40;15.60;;;8.40;;
36137;SDS011;67787;50.074;21.904;2023-09-19T06:48:08;18.20;;;8.70;;
36137;SDS011;67787;50.074;21.904;2023-09-19T06:50:38;18.00;;;9.30;;
36137;SDS011;67787;50.074;21.904;2023-09-19T06:53:06;18.00;;;9.80;;
36137;SDS011;67787;50.074;21.904;2023-09-19T06:55:34;14.60;;;7.80;;
36137;SDS011;67787;50.074;21.904;2023-09-19T06:58:04;17.10;;;8.70;;
36137;SDS011;67787;50.074;21.904;2023-09-19T07:00:33;16.10;;;9.00;;
36137;SDS011;67787;50.074;21.904;2023-09-19T07:03:04;18.80;;;8.90;;
36137;SDS011;67787;50.074;21.904;2023-09-19T07:05:36;16.40;;;9.20;;
36137;SDS011;67787;50.074;21.904;2023-09-19T07:08:07;18.40;;;9.20;;
36137;SDS011;67787;50.074;21.904;2023-09-19T07:10:41;18.10;;;9.00;;
36137;SDS011;67787;50.074;21.904;2023-09-19T07:13:16;16.50;;;8.80;;
36137;SDS011;67787;50.074;21.904;2023-09-19T07:15:45;16.90;;;9.30;;
36137;SDS011;67787;50.074;21.904;2023-09-19T07:20:46;15.20;;;8.40;;
36137;SDS011;67787;50.074;21.904;2023-09-19T07:23:18;15.10;;;8.70;;
36137;SDS011;67787;50.074;21.904;2023-09-19T07:25:49;17.90;;;9.10;;
36137;SDS011;67787;50.074;21.904;2023-09-19T07:28:18;18.30;;;8.20;;
36137;SDS011;67787;50.074;21.904;2023-09-19T07:30:46;15.00;;;7.50;;
36137;SDS011;67787;50.074;21.904;2023-09-19T07:33:17;14.00;;;7.00;;
36137;SDS011;67787;50.074;21.904;2023-09-19T07:35:46;14.50;;;7.20;;
36137;SDS011;67787;50.074;21.904;2023-09-19T07:38:15;12.80;;;6.90;;
36137;SDS011;67787;50.074;21.904;2023-09-19T07:40:45;13.30;;;6.70;;
36137;SDS011;67787;50.074;21.904;2023-09-19T07:43:14;10.70;;;6.50;;
36137;SDS011;67787;50.074;21.904;2023-09-19T07:45:41;14.40;;;7.20;;
36137;SDS011;67787;50.074;21.904;2023-09-19T07:48:10;11.60;;;6.70;;
36137;SDS011;67787;50.074;21.904;2023-09-19T07:50:42;10.20;;;6.30;;
36137;SDS011;67787;50.074;21.904;2023-09-19T07:53:13;16.00;;;7.50;;
36137;SDS011;67787;50.074;21.904;2023-09-19T07:55:41;14.20;;;6.40;;
36137;SDS011;67787;50.074;21.904;2023-09-19T07:58:12;13.80;;;6.90;;
36137;SDS011;67787;50.074;21.904;2023-09-19T08:00:41;16.70;;;8.30;;
36137;SDS011;67787;50.074;21.904;2023-09-19T08:03:09;12.80;;;7.20;;
36137;SDS011;67787;50.074;21.904;2023-09-19T08:05:45;15.60;;;7.50;;
36137;SDS011;67787;50.074;21.904;2023-09-19T08:08:13;15.80;;;7.40;;
36137;SDS011;67787;50.074;21.904;2023-09-19T08:10:46;14.30;;;7.20;;
36137;SDS011;67787;50.074;21.904;2023-09-19T08:13:24;16.30;;;7.30;;
36137;SDS011;67787;50.074;21.904;2023-09-19T08:15:53;14.90;;;7.50;;
36137;SDS011;67787;50.074;21.904;2023-09-19T08:18:21;15.70;;;7.70;;
36137;SDS011;67787;50.074;21.904;2023-09-19T08:20:51;17.20;;;7.40;;
36137;SDS011;67787;50.074;21.904;2023-09-19T08:23:20;16.30;;;7.90;;
36137;SDS011;67787;50.074;21.904;2023-09-19T08:25:48;18.70;;;8.60;;
36137;SDS011;67787;50.074;21.904;2023-09-19T08:28:16;17.50;;;8.70;;
36137;SDS011;67787;50.074;21.904;2023-09-19T08:30:52;15.70;;;7.90;;
36137;SDS011;67787;50.074;21.904;2023-09-19T08:33:24;17.50;;;8.50;;
36137;SDS011;67787;50.074;21.904;2023-09-19T08:35:52;22.30;;;8.80;;
36137;SDS011;67787;50.074;21.904;2023-09-19T08:38:20;18.30;;;8.80;;
36137;SDS011;67787;50.074;21.904;2023-09-19T08:40:48;17.80;;;8.50;;
36137;SDS011;67787;50.074;21.904;2023-09-19T08:43:16;16.10;;;8.40;;
36137;SDS011;67787;50.074;21.904;2023-09-19T08:45:44;23.70;;;9.60;;
36137;SDS011;67787;50.074;21.904;2023-09-19T08:50:52;23.00;;;12.30;;
36137;SDS011;67787;50.074;21.904;2023-09-19T08:56:10;26.80;;;14.60;;
36137;SDS011;67787;50.074;21.904;2023-09-19T08:58:44;69.10;;;46.80;;
36137;SDS011;67787;50.074;21.904;2023-09-19T09:01:15;73.70;;;41.00;;
36137;SDS011;67787;50.074;21.904;2023-09-19T09:03:44;47.80;;;28.80;;
36137;SDS011;67787;50.074;21.904;2023-09-19T09:06:16;32.90;;;16.70;;
36137;SDS011;67787;50.074;21.904;2023-09-19T09:08:46;28.80;;;14.10;;
36137;SDS011;67787;50.074;21.904;2023-09-19T09:11:15;20.10;;;10.90;;
36137;SDS011;67787;50.074;21.904;2023-09-19T09:13:45;27.80;;;12.50;;
36137;SDS011;67787;50.074;21.904;2023-09-19T09:16:14;20.60;;;10.00;;
36137;SDS011;67787;50.074;21.904;2023-09-19T09:18:48;20.50;;;9.30;;
36137;SDS011;67787;50.074;21.904;2023-09-19T09:21:23;24.50;;;8.90;;
36137;SDS011;67787;50.074;21.904;2023-09-19T09:23:53;20.90;;;9.10;;
36137;SDS011;67787;50.074;21.904;2023-09-19T09:29:07;20.00;;;8.60;;
36137;SDS011;67787;50.074;21.904;2023-09-19T09:31:36;19.20;;;8.90;;
36137;SDS011;67787;50.074;21.904;2023-09-19T09:34:08;18.90;;;8.40;;
36137;SDS011;67787;50.074;21.904;2023-09-19T09:36:39;17.70;;;7.50;;
36137;SDS011;67787;50.074;21.904;2023-09-19T09:39:13;17.90;;;8.00;;
36137;SDS011;67787;50.074;21.904;2023-09-19T09:44:16;15.60;;;7.20;;
36137;SDS011;67787;50.074;21.904;2023-09-19T09:46:46;21.60;;;7.70;;
36137;SDS011;67787;50.074;21.904;2023-09-19T09:49:22;25.50;;;9.10;;
36137;SDS011;67787;50.074;21.904;2023-09-19T09:54:38;15.20;;;6.30;;
36137;SDS011;67787;50.074;21.904;2023-09-19T09:57:27;16.70;;;7.60;;
36137;SDS011;67787;50.074;21.904;2023-09-19T09:59:58;16.90;;;7.90;;
36137;SDS011;67787;50.074;21.904;2023-09-19T10:02:43;18.30;;;8.00;;
36137;SDS011;67787;50.074;21.904;2023-09-19T10:05:15;15.60;;;6.90;;
36137;SDS011;67787;50.074;21.904;2023-09-19T10:07:49;14.70;;;6.90;;
36137;SDS011;67787;50.074;21.904;2023-09-19T10:10:37;15.40;;;7.00;;
36137;SDS011;67787;50.074;21.904;2023-09-19T10:15:58;17.20;;;6.80;;
36137;SDS011;67787;50.074;21.904;2023-09-19T10:18:31;13.90;;;6.80;;
36137;SDS011;67787;50.074;21.904;2023-09-19T10:21:04;13.70;;;6.40;;
36137;SDS011;67787;50.074;21.904;2023-09-19T10:23:34;12.00;;;6.30;;
36137;SDS011;67787;50.074;21.904;2023-09-19T10:26:05;13.90;;;6.20;;
36137;SDS011;67787;50.074;21.904;2023-09-19T10:28:34;12.50;;;6.10;;
36137;SDS011;67787;50.074;21.904;2023-09-19T10:31:04;14.80;;;6.10;;
36137;SDS011;67787;50.074;21.904;2023-09-19T10:33:37;13.30;;;6.10;;
36137;SDS011;67787;50.074;21.904;2023-09-19T10:36:06;12.60;;;6.40;;
36137;SDS011;67787;50.074;21.904;2023-09-19T10:38:35;10.70;;;5.40;;
36137;SDS011;67787;50.074;21.904;2023-09-19T10:43:38;16.10;;;5.80;;
36137;SDS011;67787;50.074;21.904;2023-09-19T10:46:12;8.80;;;4.70;;
36137;SDS011;67787;50.074;21.904;2023-09-19T10:48:41;10.40;;;5.10;;
36137;SDS011;67787;50.074;21.904;2023-09-19T10:51:30;13.10;;;5.30;;
36137;SDS011;67787;50.074;21.904;2023-09-19T10:54:07;11.30;;;5.30;;
36137;SDS011;67787;50.074;21.904;2023-09-19T10:56:44;8.70;;;4.50;;
36137;SDS011;67787;50.074;21.904;2023-09-19T10:59:20;8.50;;;4.90;;
36137;SDS011;67787;50.074;21.904;2023-09-19T11:01:52;7.70;;;4.60;;
36137;SDS011;67787;50.074;21.904;2023-09-19T11:04:35;8.70;;;4.80;;
36137;SDS011;67787;50.074;21.904;2023-09-19T11:07:05;6.60;;;4.00;;
36137;SDS011;67787;50.074;21.904;2023-09-19T11:09:53;9.90;;;4.60;;
36137;SDS011;67787;50.074;21.904;2023-09-19T11:16:03;5.60;;;3.90;;
36137;SDS011;67787;50.074;21.904;2023-09-19T11:26:41;7.90;;;4.00;;
36137;SDS011;67787;50.074;21.904;2023-09-19T11:29:25;10.50;;;4.30;;
36137;SDS011;67787;50.074;21.904;2023-09-19T11:31:53;5.80;;;4.10;;
36137;SDS011;67787;50.074;21.904;2023-09-19T11:48:27;6.20;;;3.80;;
36137;SDS011;67787;50.074;21.904;2023-09-19T11:50:57;6.30;;;3.50;;
36137;SDS011;67787;50.074;21.904;2023-09-19T11:53:30;5.90;;;3.30;;
36137;SDS011;67787;50.074;21.904;2023-09-19T11:56:00;5.70;;;3.20;;
36137;SDS011;67787;50.074;21.904;2023-09-19T11:58:38;4.80;;;3.20;;
36137;SDS011;67787;50.074;21.904;2023-09-19T12:01:13;5.80;;;3.50;;
36137;SDS011;67787;50.074;21.904;2023-09-19T12:03:42;9.70;;;3.80;;
36137;SDS011;67787;50.074;21.904;2023-09-19T12:06:15;5.80;;;3.30;;
36137;SDS011;67787;50.074;21.904;2023-09-19T12:08:43;4.50;;;3.20;;
36137;SDS011;67787;50.074;21.904;2023-09-19T12:11:17;7.60;;;3.80;;
36137;SDS011;67787;50.074;21.904;2023-09-19T12:13:46;4.40;;;3.00;;
36137;SDS011;67787;50.074;21.904;2023-09-19T12:18:51;6.60;;;3.40;;
36137;SDS011;67787;50.074;21.904;2023-09-19T12:24:00;3.70;;;2.80;;
36137;SDS011;67787;50.074;21.904;2023-09-19T12:26:42;6.90;;;4.00;;
36137;SDS011;67787;50.074;21.904;2023-09-19T12:29:17;8.80;;;4.70;;
36137;SDS011;67787;50.074;21.904;2023-09-19T12:34:32;7.80;;;4.90;;
36137;SDS011;67787;50.074;21.904;2023-09-19T12:37:06;9.80;;;4.90;;
36137;SDS011;67787;50.074;21.904;2023-09-19T12:39:49;13.60;;;5.40;;
36137;SDS011;67787;50.074;21.904;2023-09-19T12:42:19;10.70;;;5.70;;
36137;SDS011;67787;50.074;21.904;2023-09-19T12:44:51;11.40;;;6.20;;
36137;SDS011;67787;50.074;21.904;2023-09-19T12:47:28;13.90;;;6.20;;
36137;SDS011;67787;50.074;21.904;2023-09-19T12:50:07;14.20;;;7.10;;
36137;SDS011;67787;50.074;21.904;2023-09-19T12:52:46;12.70;;;6.70;;
36137;SDS011;67787;50.074;21.904;2023-09-19T12:55:21;12.20;;;6.60;;
36137;SDS011;67787;50.074;21.904;2023-09-19T13:00:33;13.10;;;6.50;;
36137;SDS011;67787;50.074;21.904;2023-09-19T13:06:01;14.90;;;6.90;;
36137;SDS011;67787;50.074;21.904;2023-09-19T13:08:32;13.40;;;6.50;;
36137;SDS011;67787;50.074;21.904;2023-09-19T13:11:06;16.20;;;6.90;;
36137;SDS011;67787;50.074;21.904;2023-09-19T13:17:01;11.90;;;6.20;;
36137;SDS011;67787;50.074;21.904;2023-09-19T13:22:43;13.20;;;6.50;;
36137;SDS011;67787;50.074;21.904;2023-09-19T13:25:22;7.90;;;4.90;;
36137;SDS011;67787;50.074;21.904;2023-09-19T13:27:51;12.80;;;6.10;;
36137;SDS011;67787;50.074;21.904;2023-09-19T13:33:03;10.60;;;5.30;;
36137;SDS011;67787;50.074;21.904;2023-09-19T13:35:38;11.80;;;5.80;;
36137;SDS011;67787;50.074;21.904;2023-09-19T13:38:07;14.40;;;6.10;;
36137;SDS011;67787;50.074;21.904;2023-09-19T13:40:40;14.50;;;5.70;;
36137;SDS011;67787;50.074;21.904;2023-09-19T13:43:11;11.70;;;5.50;;
36137;SDS011;67787;50.074;21.904;2023-09-19T13:45:39;14.00;;;6.00;;
36137;SDS011;67787;50.074;21.904;2023-09-19T13:48:10;12.80;;;5.70;;
36137;SDS011;67787;50.074;21.904;2023-09-19T13:50:41;14.20;;;6.20;;
36137;SDS011;67787;50.074;21.904;2023-09-19T13:53:10;13.30;;;5.90;;
36137;SDS011;67787;50.074;21.904;2023-09-19T13:55:40;16.30;;;6.90;;
36137;SDS011;67787;50.074;21.904;2023-09-19T13:58:09;15.40;;;6.90;;
36137;SDS011;67787;50.074;21.904;2023-09-19T14:00:38;15.20;;;6.70;;
36137;SDS011;67787;50.074;21.904;2023-09-19T14:03:06;17.20;;;7.00;;
36137;SDS011;67787;50.074;21.904;2023-09-19T14:05:37;16.50;;;8.30;;
36137;SDS011;67787;50.074;21.904;2023-09-19T14:08:05;17.90;;;7.80;;
36137;SDS011;67787;50.074;21.904;2023-09-19T14:10:33;16.70;;;7.40;;
36137;SDS011;67787;50.074;21.904;2023-09-19T14:13:06;16.70;;;8.10;;
36137;SDS011;67787;50.074;21.904;2023-09-19T14:15:36;14.00;;;6.90;;
36137;SDS011;67787;50.074;21.904;2023-09-19T14:18:05;15.20;;;7.50;;
36137;SDS011;67787;50.074;21.904;2023-09-19T14:20:37;19.10;;;7.60;;
36137;SDS011;67787;50.074;21.904;2023-09-19T14:23:07;15.70;;;7.30;;
36137;SDS011;67787;50.074;21.904;2023-09-19T14:25:36;16.10;;;7.60;;
36137;SDS011;67787;50.074;21.904;2023-09-19T14:28:04;18.00;;;8.30;;
36137;SDS011;67787;50.074;21.904;2023-09-19T14:30:35;18.80;;;8.40;;
36137;SDS011;67787;50.074;21.904;2023-09-19T14:33:04;18.30;;;8.60;;
36137;SDS011;67787;50.074;21.904;2023-09-19T14:35:36;18.90;;;7.90;;
36137;SDS011;67787;50.074;21.904;2023-09-19T14:38:04;18.30;;;8.20;;
36137;SDS011;67787;50.074;21.904;2023-09-19T14:40:33;17.20;;;7.90;;
36137;SDS011;67787;50.074;21.904;2023-09-19T14:43:01;19.30;;;9.00;;
36137;SDS011;67787;50.074;21.904;2023-09-19T14:45:31;17.30;;;8.20;;
36137;SDS011;67787;50.074;21.904;2023-09-19T14:51:14;20.10;;;11.30;;
36137;SDS011;67787;50.074;21.904;2023-09-19T14:53:43;20.10;;;9.70;;
36137;SDS011;67787;50.074;21.904;2023-09-19T14:56:11;19.50;;;9.30;;
36137;SDS011;67787;50.074;21.904;2023-09-19T14:58:40;19.30;;;9.00;;
36137;SDS011;67787;50.074;21.904;2023-09-19T15:01:10;16.20;;;8.40;;
36137;SDS011;67787;50.074;21.904;2023-09-19T15:03:40;15.30;;;7.70;;
36137;SDS011;67787;50.074;21.904;2023-09-19T15:06:10;15.30;;;7.80;;
36137;SDS011;67787;50.074;21.904;2023-09-19T15:08:46;15.10;;;7.60;;
36137;SDS011;67787;50.074;21.904;2023-09-19T15:11:19;16.40;;;8.20;;
36137;SDS011;67787;50.074;21.904;2023-09-19T15:13:50;21.20;;;8.40;;
36137;SDS011;67787;50.074;21.904;2023-09-19T15:16:20;15.40;;;7.50;;
36137;SDS011;67787;50.074;21.904;2023-09-19T15:18:48;14.80;;;6.70;;
36137;SDS011;67787;50.074;21.904;2023-09-19T15:21:16;15.60;;;7.90;;
36137;SDS011;67787;50.074;21.904;2023-09-19T15:23:44;17.10;;;7.80;;
36137;SDS011;67787;50.074;21.904;2023-09-19T15:26:14;16.80;;;8.40;;
36137;SDS011;67787;50.074;21.904;2023-09-19T15:28:48;19.10;;;9.80;;
36137;SDS011;67787;50.074;21.904;2023-09-19T15:31:17;16.60;;;8.60;;
36137;SDS011;67787;50.074;21.904;2023-09-19T15:33:45;15.50;;;7.80;;
36137;SDS011;67787;50.074;21.904;2023-09-19T15:36:14;17.40;;;8.60;;
36137;SDS011;67787;50.074;21.904;2023-09-19T15:39:00;18.20;;;8.00;;
36137;SDS011;67787;50.074;21.904;2023-09-19T15:41:37;16.50;;;8.10;;
36137;SDS011;67787;50.074;21.904;2023-09-19T15:44:17;15.90;;;7.40;;
36137;SDS011;67787;50.074;21.904;2023-09-19T15:46:51;13.00;;;6.60;;
36137;SDS011;67787;50.074;21.904;2023-09-19T15:49:19;12.40;;;6.60;;
36137;SDS011;67787;50.074;21.904;2023-09-19T15:51:48;14.80;;;6.90;;
36137;SDS011;67787;50.074;21.904;2023-09-19T15:54:16;15.70;;;7.40;;
36137;SDS011;67787;50.074;21.904;2023-09-19T15:56:45;15.10;;;7.90;;
36137;SDS011;67787;50.074;21.904;2023-09-19T15:59:14;16.70;;;8.00;;
36137;SDS011;67787;50.074;21.904;2023-09-19T16:01:43;16.30;;;9.10;;
36137;SDS011;67787;50.074;21.904;2023-09-19T16:04:12;18.40;;;9.10;;
36137;SDS011;67787;50.074;21.904;2023-09-19T16:06:40;17.10;;;9.70;;
36137;SDS011;67787;50.074;21.904;2023-09-19T16:09:08;19.30;;;10.40;;
36137;SDS011;67787;50.074;21.904;2023-09-19T16:11:39;18.30;;;9.30;;
36137;SDS011;67787;50.074;21.904;2023-09-19T16:14:09;20.50;;;11.80;;
36137;SDS011;67787;50.074;21.904;2023-09-19T16:16:38;19.80;;;11.10;;
36137;SDS011;67787;50.074;21.904;2023-09-19T16:19:06;19.10;;;11.30;;
36137;SDS011;67787;50.074;21.904;2023-09-19T16:21:38;19.40;;;11.20;;
36137;SDS011;67787;50.074;21.904;2023-09-19T16:24:09;18.50;;;10.30;;
36137;SDS011;67787;50.074;21.904;2023-09-19T16:26:38;18.10;;;10.80;;
36137;SDS011;67787;50.074;21.904;2023-09-19T16:29:06;18.10;;;10.40;;
36137;SDS011;67787;50.074;21.904;2023-09-19T16:31:34;18.30;;;10.50;;
36137;SDS011;67787;50.074;21.904;2023-09-19T16:34:05;19.80;;;11.40;;
36137;SDS011;67787;50.074;21.904;2023-09-19T16:36:33;16.90;;;10.20;;
36137;SDS011;67787;50.074;21.904;2023-09-19T16:39:02;18.30;;;11.20;;
36137;SDS011;67787;50.074;21.904;2023-09-19T16:41:31;20.50;;;10.90;;
36137;SDS011;67787;50.074;21.904;2023-09-19T16:44:00;19.50;;;11.20;;
36137;SDS011;67787;50.074;21.904;2023-09-19T16:46:28;17.40;;;10.10;;
36137;SDS011;67787;50.074;21.904;2023-09-19T16:48:56;17.60;;;10.70;;
36137;SDS011;67787;50.074;21.904;2023-09-19T16:51:31;19.60;;;10.60;;
36137;SDS011;67787;50.074;21.904;2023-09-19T16:54:00;21.80;;;10.40;;
36137;SDS011;67787;50.074;21.904;2023-09-19T19:32:07;17.10;;;9.10;;
36137;SDS011;67787;50.074;21.904;2023-09-19T19:35:31;19.00;;;10.00;;
36137;SDS011;67787;50.074;21.904;2023-09-19T19:38:54;18.10;;;9.70;;
36137;SDS011;67787;50.074;21.904;2023-09-19T19:42:08;20.10;;;10.40;;
36137;SDS011;67787;50.074;21.904;2023-09-19T19:45:59;21.40;;;11.20;;
36137;SDS011;67787;50.074;21.904;2023-09-19T19:52:59;20.90;;;11.60;;
36137;SDS011;67787;50.074;21.904;2023-09-19T19:56:10;19.70;;;10.90;;
36137;SDS011;67787;50.074;21.904;2023-09-19T19:59:33;22.80;;;12.60;;
36137;SDS011;67787;50.074;21.904;2023-09-19T20:03:04;19.80;;;11.40;;
36137;SDS011;67787;50.074;21.904;2023-09-19T20:06:33;21.30;;;12.50;;
36137;SDS011;67787;50.074;21.904;2023-09-19T20:10:11;20.60;;;12.30;;
36137;SDS011;67787;50.074;21.904;2023-09-19T20:13:53;21.60;;;11.20;;
36137;SDS011;67787;50.074;21.904;2023-09-19T20:17:20;20.10;;;11.30;;
36137;SDS011;67787;50.074;21.904;2023-09-19T20:24:10;20.60;;;11.30;;
36137;SDS011;67787;50.074;21.904;2023-09-19T20:27:23;22.60;;;12.80;;
36137;SDS011;67787;50.074;21.904;2023-09-19T20:30:37;20.40;;;12.50;;
36137;SDS011;67787;50.074;21.904;2023-09-19T20:33:59;26.60;;;14.70;;
36137;SDS011;67787;50.074;21.904;2023-09-19T20:37:21;22.10;;;12.40;;
36137;SDS011;67787;50.074;21.904;2023-09-19T20:40:45;25.20;;;15.80;;
36137;SDS011;67787;50.074;21.904;2023-09-19T20:44:34;24.70;;;14.40;;
36137;SDS011;67787;50.074;21.904;2023-09-19T20:48:00;24.70;;;15.30;;
36137;SDS011;67787;50.074;21.904;2023-09-19T20:51:12;24.90;;;15.00;;
36137;SDS011;67787;50.074;21.904;2023-09-19T20:54:26;24.20;;;15.90;;
36137;SDS011;67787;50.074;21.904;2023-09-19T20:57:53;26.20;;;16.10;;
36137;SDS011;67787;50.074;21.904;2023-09-19T21:01:17;24.70;;;15.40;;
36137;SDS011;67787;50.074;21.904;2023-09-19T21:04:41;26.40;;;16.60;;
36137;SDS011;67787;50.074;21.904;2023-09-19T21:07:53;27.10;;;15.30;;
36137;SDS011;67787;50.074;21.904;2023-09-19T21:11:34;24.80;;;14.70;;
36137;SDS011;67787;50.074;21.904;2023-09-19T21:14:41;24.10;;;14.50;;
36137;SDS011;67787;50.074;21.904;2023-09-19T21:17:47;24.40;;;14.20;;
36137;SDS011;67787;50.074;21.904;2023-09-19T21:21:13;23.60;;;14.00;;
36137;SDS011;67787;50.074;21.904;2023-09-19T21:24:36;25.90;;;16.00;;
36137;SDS011;67787;50.074;21.904;2023-09-19T21:27:54;29.30;;;14.00;;
36137;SDS011;67787;50.074;21.904;2023-09-19T21:31:01;27.30;;;14.60;;
36137;SDS011;67787;50.074;21.904;2023-09-19T21:34:01;26.00;;;14.90;;
36137;SDS011;67787;50.074;21.904;2023-09-19T21:37:25;24.50;;;12.90;;
36137;SDS011;67787;50.074;21.904;2023-09-19T21:40:46;23.20;;;13.70;;
36137;SDS011;67787;50.074;21.904;2023-09-19T21:44:01;24.90;;;14.60;;
36137;SDS011;67787;50.074;21.904;2023-09-19T21:47:08;24.70;;;14.00;;
36137;SDS011;67787;50.074;21.904;2023-09-19T21:50:25;21.80;;;13.20;;
36137;SDS011;67787;50.074;21.904;2023-09-19T21:53:46;24.00;;;13.90;;
36137;SDS011;67787;50.074;21.904;2023-09-19T21:56:55;21.70;;;13.40;;
36137;SDS011;67787;50.074;21.904;2023-09-19T21:59:42;24.00;;;15.10;;
36137;SDS011;67787;50.074;21.904;2023-09-19T22:03:02;22.40;;;12.70;;
36137;SDS011;67787;50.074;21.904;2023-09-19T22:05:46;23.60;;;14.20;;
36137;SDS011;67787;50.074;21.904;2023-09-19T22:08:44;24.60;;;13.90;;
36137;SDS011;67787;50.074;21.904;2023-09-19T22:12:13;24.30;;;14.00;;
36137;SDS011;67787;50.074;21.904;2023-09-19T22:15:17;22.90;;;14.10;;
36137;SDS011;67787;50.074;21.904;2023-09-19T22:18:16;24.60;;;14.20;;
36137;SDS011;67787;50.074;21.904;2023-09-19T22:21:44;23.70;;;13.90;;
36137;SDS011;67787;50.074;21.904;2023-09-19T22:25:08;24.20;;;13.70;;
36137;SDS011;67787;50.074;21.904;2023-09-19T22:28:16;25.20;;;14.50;;
36137;SDS011;67787;50.074;21.904;2023-09-19T22:31:21;26.20;;;14.80;;
36137;SDS011;67787;50.074;21.904;2023-09-19T22:34:57;23.60;;;14.20;;
36137;SDS011;67787;50.074;21.904;2023-09-19T22:38:02;25.30;;;15.30;;
36137;SDS011;67787;50.074;21.904;2023-09-19T22:41:27;24.60;;;14.70;;
36137;SDS011;67787;50.074;21.904;2023-09-19T22:44:43;24.50;;;13.60;;
36137;SDS011;67787;50.074;21.904;2023-09-19T22:48:12;24.40;;;14.30;;
36137;SDS011;67787;50.074;21.904;2023-09-19T22:51:40;26.10;;;14.20;;
36137;SDS011;67787;50.074;21.904;2023-09-19T22:55:04;23.50;;;14.30;;
36137;SDS011;67787;50.074;21.904;2023-09-19T22:58:08;24.50;;;13.50;;
36137;SDS011;67787;50.074;21.904;2023-09-19T23:01:36;25.10;;;13.30;;
36137;SDS011;67787;50.074;21.904;2023-09-19T23:04:42;24.80;;;13.60;;
36137;SDS011;67787;50.074;21.904;2023-09-19T23:07:53;23.60;;;13.50;;
36137;SDS011;67787;50.074;21.904;2023-09-19T23:10:56;23.50;;;13.30;;
36137;SDS011;67787;50.074;21.904;2023-09-19T23:14:01;21.20;;;11.80;;
36137;SDS011;67787;50.074;21.904;2023-09-19T23:16:54;20.60;;;12.10;;
36137;SDS011;67787;50.074;21.904;2023-09-19T23:27:27;19.10;;;11.00;;
36137;SDS011;67787;50.074;21.904;2023-09-19T23:30:33;19.90;;;10.70;;
36137;SDS011;67787;50.074;21.904;2023-09-19T23:33:37;18.80;;;10.20;;
36137;SDS011;67787;50.074;21.904;2023-09-19T23:36:56;17.40;;;9.10;;
36137;SDS011;67787;50.074;21.904;2023-09-19T23:40:00;18.10;;;10.00;;